sensor_id;sensor_type;location;lat;lon;timestamp;temperature;humidity
55711;DHT22;41612;51.994;5.880;2023-11-19T00:04:31;12.90;90.00
55711;DHT22;41612;51.994;5.880;2023-11-19T00:17:45;13.00;90.20
55711;DHT22;41612;51.994;5.880;2023-11-19T00:20:36;13.00;89.40
55711;DHT22;41612;51.994;5.880;2023-11-19T00:23:05;13.10;89.60
55711;DHT22;41612;51.994;5.880;2023-11-19T00:25:31;13.10;88.60
55711;DHT22;41612;51.994;5.880;2023-11-19T00:27:58;13.10;89.60
55711;DHT22;41612;51.994;5.880;2023-11-19T00:30:25;13.10;89.80
55711;DHT22;41612;51.994;5.880;2023-11-19T00:34:05;13.20;89.60
55711;DHT22;41612;51.994;5.880;2023-11-19T00:37:21;13.20;89.30
55711;DHT22;41612;51.994;5.880;2023-11-19T00:40:07;13.20;89.70
55711;DHT22;41612;51.994;5.880;2023-11-19T00:42:57;13.20;89.80
55711;DHT22;41612;51.994;5.880;2023-11-19T00:48:53;13.10;87.60
55711;DHT22;41612;51.994;5.880;2023-11-19T00:51:23;13.20;88.70
55711;DHT22;41612;51.994;5.880;2023-11-19T00:53:52;13.20;88.80
55711;DHT22;41612;51.994;5.880;2023-11-19T00:56:18;13.20;89.60
55711;DHT22;41612;51.994;5.880;2023-11-19T00:58:45;13.20;89.10
55711;DHT22;41612;51.994;5.880;2023-11-19T01:01:14;13.20;89.20
55711;DHT22;41612;51.994;5.880;2023-11-19T01:03:39;13.20;89.10
55711;DHT22;41612;51.994;5.880;2023-11-19T01:06:05;13.30;89.00
55711;DHT22;41612;51.994;5.880;2023-11-19T01:08:31;13.30;88.60
55711;DHT22;41612;51.994;5.880;2023-11-19T01:10:57;13.30;88.20
55711;DHT22;41612;51.994;5.880;2023-11-19T01:13:22;13.30;88.90
55711;DHT22;41612;51.994;5.880;2023-11-19T01:15:48;13.30;89.50
55711;DHT22;41612;51.994;5.880;2023-11-19T01:18:13;13.30;88.00
55711;DHT22;41612;51.994;5.880;2023-11-19T01:20:39;13.30;89.00
55711;DHT22;41612;51.994;5.880;2023-11-19T01:23:05;13.40;89.20
55711;DHT22;41612;51.994;5.880;2023-11-19T01:25:31;13.30;88.10
55711;DHT22;41612;51.994;5.880;2023-11-19T01:27:56;13.30;86.80
55711;DHT22;41612;51.994;5.880;2023-11-19T01:30:26;13.30;86.40
55711;DHT22;41612;51.994;5.880;2023-11-19T01:32:51;13.30;88.00
55711;DHT22;41612;51.994;5.880;2023-11-19T01:35:17;13.30;88.10
55711;DHT22;41612;51.994;5.880;2023-11-19T01:37:43;13.30;87.30
55711;DHT22;41612;51.994;5.880;2023-11-19T01:40:09;13.30;87.60
55711;DHT22;41612;51.994;5.880;2023-11-19T01:42:40;13.30;88.20
55711;DHT22;41612;51.994;5.880;2023-11-19T01:45:07;13.40;87.90
55711;DHT22;41612;51.994;5.880;2023-11-19T01:47:35;13.30;87.50
55711;DHT22;41612;51.994;5.880;2023-11-19T01:50:03;13.40;86.30
55711;DHT22;41612;51.994;5.880;2023-11-19T01:52:34;13.40;87.20
55711;DHT22;41612;51.994;5.880;2023-11-19T01:55:02;13.40;88.20
55711;DHT22;41612;51.994;5.880;2023-11-19T01:57:28;13.40;87.30
55711;DHT22;41612;51.994;5.880;2023-11-19T03:24:59;12.90;85.20
55711;DHT22;41612;51.994;5.880;2023-11-19T03:27:25;12.90;85.80
55711;DHT22;41612;51.994;5.880;2023-11-19T03:29:51;12.90;85.30
55711;DHT22;41612;51.994;5.880;2023-11-19T03:32:19;12.90;85.50
55711;DHT22;41612;51.994;5.880;2023-11-19T03:34:45;12.80;84.90
55711;DHT22;41612;51.994;5.880;2023-11-19T03:37:14;12.80;85.80
55711;DHT22;41612;51.994;5.880;2023-11-19T03:39:42;12.80;84.60
55711;DHT22;41612;51.994;5.880;2023-11-19T03:43:05;12.80;84.60
55711;DHT22;41612;51.994;5.880;2023-11-19T03:45:36;12.80;85.70
55711;DHT22;41612;51.994;5.880;2023-11-19T03:48:02;12.70;84.90
55711;DHT22;41612;51.994;5.880;2023-11-19T03:50:32;12.60;84.40
55711;DHT22;41612;51.994;5.880;2023-11-19T03:53:00;12.60;85.60
55711;DHT22;41612;51.994;5.880;2023-11-19T03:55:27;12.50;85.60
55711;DHT22;41612;51.994;5.880;2023-11-19T03:58:05;12.40;85.00
55711;DHT22;41612;51.994;5.880;2023-11-19T04:00:31;12.40;85.40
55711;DHT22;41612;51.994;5.880;2023-11-19T04:02:57;12.30;85.90
55711;DHT22;41612;51.994;5.880;2023-11-19T04:05:27;12.30;85.80
55711;DHT22;41612;51.994;5.880;2023-11-19T04:08:18;12.30;85.40
55711;DHT22;41612;51.994;5.880;2023-11-19T04:10:44;12.20;84.90
55711;DHT22;41612;51.994;5.880;2023-11-19T04:13:10;12.10;85.10
55711;DHT22;41612;51.994;5.880;2023-11-19T04:15:37;12.10;86.40
55711;DHT22;41612;51.994;5.880;2023-11-19T04:18:11;12.10;85.70
55711;DHT22;41612;51.994;5.880;2023-11-19T04:21:08;12.10;86.00
55711;DHT22;41612;51.994;5.880;2023-11-19T04:23:45;12.10;85.70
55711;DHT22;41612;51.994;5.880;2023-11-19T04:26:12;12.00;86.20
55711;DHT22;41612;51.994;5.880;2023-11-19T04:28:42;12.00;85.70
55711;DHT22;41612;51.994;5.880;2023-11-19T04:31:35;12.00;85.70
55711;DHT22;41612;51.994;5.880;2023-11-19T04:34:04;12.00;85.90
55711;DHT22;41612;51.994;5.880;2023-11-19T04:36:38;11.90;85.50
55711;DHT22;41612;51.994;5.880;2023-11-19T04:39:29;11.90;85.40
55711;DHT22;41612;51.994;5.880;2023-11-19T04:42:16;11.90;86.00
55711;DHT22;41612;51.994;5.880;2023-11-19T04:44:43;11.90;84.80
55711;DHT22;41612;51.994;5.880;2023-11-19T04:47:09;11.80;84.90
55711;DHT22;41612;51.994;5.880;2023-11-19T04:49:40;11.80;85.30
55711;DHT22;41612;51.994;5.880;2023-11-19T04:52:08;11.80;85.90
55711;DHT22;41612;51.994;5.880;2023-11-19T04:54:33;11.80;85.60
55711;DHT22;41612;51.994;5.880;2023-11-19T04:56:59;11.80;85.30
55711;DHT22;41612;51.994;5.880;2023-11-19T04:59:25;11.80;85.10
55711;DHT22;41612;51.994;5.880;2023-11-19T05:01:50;11.80;84.50
55711;DHT22;41612;51.994;5.880;2023-11-19T05:04:16;11.80;85.30
55711;DHT22;41612;51.994;5.880;2023-11-19T05:06:44;11.70;84.40
55711;DHT22;41612;51.994;5.880;2023-11-19T05:09:10;11.70;85.10
55711;DHT22;41612;51.994;5.880;2023-11-19T05:11:38;11.70;85.40
55711;DHT22;41612;51.994;5.880;2023-11-19T05:14:04;11.70;85.50
55711;DHT22;41612;51.994;5.880;2023-11-19T05:16:30;11.70;84.80
55711;DHT22;41612;51.994;5.880;2023-11-19T05:18:56;11.80;85.30
55711;DHT22;41612;51.994;5.880;2023-11-19T05:21:22;11.70;85.00
55711;DHT22;41612;51.994;5.880;2023-11-19T05:23:48;11.80;84.80
55711;DHT22;41612;51.994;5.880;2023-11-19T05:26:21;11.80;85.00
55711;DHT22;41612;51.994;5.880;2023-11-19T05:28:48;11.70;85.60
55711;DHT22;41612;51.994;5.880;2023-11-19T05:31:13;11.80;85.60
55711;DHT22;41612;51.994;5.880;2023-11-19T05:33:39;11.90;85.40
55711;DHT22;41612;51.994;5.880;2023-11-19T05:36:05;11.90;85.30
55711;DHT22;41612;51.994;5.880;2023-11-19T05:38:36;11.90;84.50
55711;DHT22;41612;51.994;5.880;2023-11-19T05:41:02;12.00;84.40
55711;DHT22;41612;51.994;5.880;2023-11-19T05:43:30;12.00;84.10
55711;DHT22;41612;51.994;5.880;2023-11-19T05:45:55;12.00;83.20
55711;DHT22;41612;51.994;5.880;2023-11-19T05:48:31;12.00;83.70
55711;DHT22;41612;51.994;5.880;2023-11-19T05:51:50;12.00;84.00
55711;DHT22;41612;51.994;5.880;2023-11-19T06:21:47;11.90;83.20
55711;DHT22;41612;51.994;5.880;2023-11-19T06:24:45;11.90;83.30
55711;DHT22;41612;51.994;5.880;2023-11-19T07:02:28;11.80;84.20
55711;DHT22;41612;51.994;5.880;2023-11-19T07:04:54;11.80;83.60
55711;DHT22;41612;51.994;5.880;2023-11-19T07:07:20;11.80;82.90
55711;DHT22;41612;51.994;5.880;2023-11-19T07:09:46;11.80;83.60
55711;DHT22;41612;51.994;5.880;2023-11-19T07:12:11;11.80;83.90
55711;DHT22;41612;51.994;5.880;2023-11-19T07:14:39;11.80;84.30
55711;DHT22;41612;51.994;5.880;2023-11-19T07:17:04;11.80;84.30
55711;DHT22;41612;51.994;5.880;2023-11-19T07:19:30;11.80;84.10
55711;DHT22;41612;51.994;5.880;2023-11-19T07:21:59;11.90;84.30
55711;DHT22;41612;51.994;5.880;2023-11-19T07:24:24;11.90;84.00
55711;DHT22;41612;51.994;5.880;2023-11-19T07:26:50;11.90;84.00
55711;DHT22;41612;51.994;5.880;2023-11-19T07:29:19;11.90;83.80
55711;DHT22;41612;51.994;5.880;2023-11-19T07:31:45;11.90;83.70
55711;DHT22;41612;51.994;5.880;2023-11-19T07:34:11;11.90;83.60
55711;DHT22;41612;51.994;5.880;2023-11-19T07:36:43;11.90;83.70
55711;DHT22;41612;51.994;5.880;2023-11-19T07:39:11;11.80;83.80
55711;DHT22;41612;51.994;5.880;2023-11-19T07:41:38;11.90;83.70
55711;DHT22;41612;51.994;5.880;2023-11-19T07:44:05;11.90;83.30
55711;DHT22;41612;51.994;5.880;2023-11-19T07:46:31;11.90;83.50
55711;DHT22;41612;51.994;5.880;2023-11-19T07:49:03;11.90;83.50
55711;DHT22;41612;51.994;5.880;2023-11-19T07:51:41;12.00;82.80
55711;DHT22;41612;51.994;5.880;2023-11-19T07:54:07;12.00;82.90
55711;DHT22;41612;51.994;5.880;2023-11-19T07:56:36;12.10;82.50
55711;DHT22;41612;51.994;5.880;2023-11-19T07:59:07;12.10;82.20
55711;DHT22;41612;51.994;5.880;2023-11-19T08:01:33;12.10;82.20
55711;DHT22;41612;51.994;5.880;2023-11-19T08:04:01;12.10;82.60
55711;DHT22;41612;51.994;5.880;2023-11-19T08:06:27;12.20;82.70
55711;DHT22;41612;51.994;5.880;2023-11-19T08:08:53;12.20;82.50
55711;DHT22;41612;51.994;5.880;2023-11-19T08:11:18;12.30;82.60
55711;DHT22;41612;51.994;5.880;2023-11-19T08:13:45;12.30;82.10
55711;DHT22;41612;51.994;5.880;2023-11-19T08:16:10;12.40;82.20
55711;DHT22;41612;51.994;5.880;2023-11-19T08:18:36;12.40;82.00
55711;DHT22;41612;51.994;5.880;2023-11-19T08:21:02;12.50;81.10
55711;DHT22;41612;51.994;5.880;2023-11-19T08:23:30;12.50;81.00
55711;DHT22;41612;51.994;5.880;2023-11-19T08:25:55;12.40;81.30
55711;DHT22;41612;51.994;5.880;2023-11-19T08:28:21;12.50;81.10
55711;DHT22;41612;51.994;5.880;2023-11-19T08:30:47;12.50;81.60
55711;DHT22;41612;51.994;5.880;2023-11-19T08:33:12;12.50;81.40
55711;DHT22;41612;51.994;5.880;2023-11-19T08:35:38;12.50;81.00
55711;DHT22;41612;51.994;5.880;2023-11-19T08:38:04;12.50;81.20
55711;DHT22;41612;51.994;5.880;2023-11-19T08:40:29;12.50;81.00
55711;DHT22;41612;51.994;5.880;2023-11-19T08:42:56;12.60;80.90
55711;DHT22;41612;51.994;5.880;2023-11-19T08:45:22;12.50;80.90
55711;DHT22;41612;51.994;5.880;2023-11-19T08:47:47;12.50;80.90
55711;DHT22;41612;51.994;5.880;2023-11-19T08:50:13;12.60;81.00
55711;DHT22;41612;51.994;5.880;2023-11-19T08:52:39;12.70;80.50
55711;DHT22;41612;51.994;5.880;2023-11-19T08:55:04;12.80;80.40
55711;DHT22;41612;51.994;5.880;2023-11-19T08:57:31;12.80;79.40
55711;DHT22;41612;51.994;5.880;2023-11-19T08:59:58;12.70;79.60
55711;DHT22;41612;51.994;5.880;2023-11-19T09:02:23;12.80;79.70
55711;DHT22;41612;51.994;5.880;2023-11-19T09:04:49;12.80;79.60
55711;DHT22;41612;51.994;5.880;2023-11-19T09:07:15;12.80;79.60
55711;DHT22;41612;51.994;5.880;2023-11-19T09:09:40;12.80;79.70
55711;DHT22;41612;51.994;5.880;2023-11-19T09:12:12;12.90;79.70
55711;DHT22;41612;51.994;5.880;2023-11-19T09:14:39;12.90;79.40
55711;DHT22;41612;51.994;5.880;2023-11-19T09:17:05;12.90;79.20
55711;DHT22;41612;51.994;5.880;2023-11-19T09:19:32;12.90;79.10
55711;DHT22;41612;51.994;5.880;2023-11-19T09:21:58;12.90;78.80
55711;DHT22;41612;51.994;5.880;2023-11-19T09:24:24;12.90;79.10
55711;DHT22;41612;51.994;5.880;2023-11-19T09:26:49;12.90;79.10
55711;DHT22;41612;51.994;5.880;2023-11-19T09:29:15;13.00;78.90
55711;DHT22;41612;51.994;5.880;2023-11-19T09:31:42;13.00;78.90
55711;DHT22;41612;51.994;5.880;2023-11-19T09:34:07;13.10;78.60
55711;DHT22;41612;51.994;5.880;2023-11-19T09:36:33;13.10;78.50
55711;DHT22;41612;51.994;5.880;2023-11-19T09:38:59;13.00;78.40
55711;DHT22;41612;51.994;5.880;2023-11-19T09:41:30;13.10;78.40
55711;DHT22;41612;51.994;5.880;2023-11-19T09:43:57;13.20;78.20
55711;DHT22;41612;51.994;5.880;2023-11-19T09:46:22;13.20;78.20
55711;DHT22;41612;51.994;5.880;2023-11-19T09:48:53;13.20;78.00
55711;DHT22;41612;51.994;5.880;2023-11-19T09:51:20;13.20;78.10
55711;DHT22;41612;51.994;5.880;2023-11-19T09:53:47;13.20;77.90
55711;DHT22;41612;51.994;5.880;2023-11-19T09:56:14;13.10;78.40
55711;DHT22;41612;51.994;5.880;2023-11-19T09:58:42;13.10;78.60
55711;DHT22;41612;51.994;5.880;2023-11-19T10:01:09;13.30;78.00
55711;DHT22;41612;51.994;5.880;2023-11-19T10:03:41;13.50;77.70
55711;DHT22;41612;51.994;5.880;2023-11-19T10:06:10;13.60;77.30
55711;DHT22;41612;51.994;5.880;2023-11-19T10:08:41;13.60;77.10
55711;DHT22;41612;51.994;5.880;2023-11-19T10:11:08;13.60;77.10
55711;DHT22;41612;51.994;5.880;2023-11-19T10:13:37;13.50;77.20
55711;DHT22;41612;51.994;5.880;2023-11-19T10:16:13;13.50;77.20
55711;DHT22;41612;51.994;5.880;2023-11-19T10:18:51;13.40;77.30
55711;DHT22;41612;51.994;5.880;2023-11-19T10:21:18;13.40;77.50
55711;DHT22;41612;51.994;5.880;2023-11-19T10:23:55;13.30;77.50
55711;DHT22;41612;51.994;5.880;2023-11-19T10:26:27;13.40;77.30
55711;DHT22;41612;51.994;5.880;2023-11-19T10:28:53;13.30;77.00
55711;DHT22;41612;51.994;5.880;2023-11-19T10:31:30;13.30;77.10
55711;DHT22;41612;51.994;5.880;2023-11-19T10:33:58;13.30;77.10
55711;DHT22;41612;51.994;5.880;2023-11-19T10:36:37;13.30;77.00
55711;DHT22;41612;51.994;5.880;2023-11-19T10:39:04;13.40;76.80
55711;DHT22;41612;51.994;5.880;2023-11-19T10:41:33;13.50;76.70
55711;DHT22;41612;51.994;5.880;2023-11-19T10:43:59;13.40;76.80
55711;DHT22;41612;51.994;5.880;2023-11-19T10:46:40;13.50;76.60
55711;DHT22;41612;51.994;5.880;2023-11-19T10:49:07;13.50;76.20
55711;DHT22;41612;51.994;5.880;2023-11-19T10:51:33;13.60;76.40
55711;DHT22;41612;51.994;5.880;2023-11-19T10:54:06;13.70;75.90
55711;DHT22;41612;51.994;5.880;2023-11-19T10:56:33;13.80;75.50
55711;DHT22;41612;51.994;5.880;2023-11-19T10:59:00;14.10;74.60
55711;DHT22;41612;51.994;5.880;2023-11-19T11:01:45;14.20;74.40
55711;DHT22;41612;51.994;5.880;2023-11-19T11:04:22;14.40;73.20
55711;DHT22;41612;51.994;5.880;2023-11-19T11:06:51;14.40;72.90
55711;DHT22;41612;51.994;5.880;2023-11-19T11:09:17;14.30;73.40
55711;DHT22;41612;51.994;5.880;2023-11-19T11:11:49;14.50;72.40
55711;DHT22;41612;51.994;5.880;2023-11-19T11:14:22;14.60;72.50
55711;DHT22;41612;51.994;5.880;2023-11-19T11:16:51;14.50;71.60
55711;DHT22;41612;51.994;5.880;2023-11-19T11:19:25;14.70;71.50
55711;DHT22;41612;51.994;5.880;2023-11-19T11:21:55;14.90;70.90
55711;DHT22;41612;51.994;5.880;2023-11-19T11:25:06;14.80;71.00
55711;DHT22;41612;51.994;5.880;2023-11-19T11:27:51;14.80;71.10
55711;DHT22;41612;51.994;5.880;2023-11-19T11:30:35;14.80;70.90
55711;DHT22;41612;51.994;5.880;2023-11-19T11:33:35;14.70;70.20
55711;DHT22;41612;51.994;5.880;2023-11-19T11:36:19;14.60;71.40
55711;DHT22;41612;51.994;5.880;2023-11-19T11:38:58;14.50;71.60
55711;DHT22;41612;51.994;5.880;2023-11-19T11:41:33;14.40;72.30
55711;DHT22;41612;51.994;5.880;2023-11-19T11:43:59;14.30;72.60
55711;DHT22;41612;51.994;5.880;2023-11-19T11:49:05;14.20;73.30
55711;DHT22;41612;51.994;5.880;2023-11-19T11:57:14;14.30;73.50
55711;DHT22;41612;51.994;5.880;2023-11-19T11:59:45;14.50;73.10
55711;DHT22;41612;51.994;5.880;2023-11-19T12:02:33;14.50;71.80
55711;DHT22;41612;51.994;5.880;2023-11-19T12:05:00;14.50;72.30
55711;DHT22;41612;51.994;5.880;2023-11-19T12:07:32;14.60;72.10
55711;DHT22;41612;51.994;5.880;2023-11-19T12:10:06;15.20;71.40
55711;DHT22;41612;51.994;5.880;2023-11-19T12:12:40;16.20;68.40
55711;DHT22;41612;51.994;5.880;2023-11-19T12:15:10;17.10;65.00
55711;DHT22;41612;51.994;5.880;2023-11-19T12:17:36;17.30;63.10
55711;DHT22;41612;51.994;5.880;2023-11-19T12:20:08;16.80;64.00
55711;DHT22;41612;51.994;5.880;2023-11-19T12:22:41;16.20;64.80
55711;DHT22;41612;51.994;5.880;2023-11-19T12:25:08;15.70;66.70
55711;DHT22;41612;51.994;5.880;2023-11-19T12:27:50;15.70;66.90
55711;DHT22;41612;51.994;5.880;2023-11-19T12:30:24;15.60;67.20
55711;DHT22;41612;51.994;5.880;2023-11-19T12:32:50;15.90;66.70
55711;DHT22;41612;51.994;5.880;2023-11-19T12:35:23;16.30;65.10
55711;DHT22;41612;51.994;5.880;2023-11-19T12:37:51;17.20;63.10
55711;DHT22;41612;51.994;5.880;2023-11-19T12:40:24;17.30;61.60
55711;DHT22;41612;51.994;5.880;2023-11-19T12:42:51;16.90;63.10
55711;DHT22;41612;51.994;5.880;2023-11-19T12:45:19;16.90;62.50
55711;DHT22;41612;51.994;5.880;2023-11-19T12:47:47;16.60;62.80
55711;DHT22;41612;51.994;5.880;2023-11-19T12:50:16;16.20;64.90
55711;DHT22;41612;51.994;5.880;2023-11-19T12:52:57;16.00;65.20
55711;DHT22;41612;51.994;5.880;2023-11-19T12:55:29;15.90;66.20
55711;DHT22;41612;51.994;5.880;2023-11-19T12:57:58;15.60;66.10
55711;DHT22;41612;51.994;5.880;2023-11-19T13:00:28;15.30;67.50
55711;DHT22;41612;51.994;5.880;2023-11-19T13:02:56;15.20;68.40
55711;DHT22;41612;51.994;5.880;2023-11-19T13:05:30;15.10;69.00
55711;DHT22;41612;51.994;5.880;2023-11-19T13:08:08;15.10;69.30
55711;DHT22;41612;51.994;5.880;2023-11-19T13:10:58;15.50;67.00
55711;DHT22;41612;51.994;5.880;2023-11-19T13:13:29;15.60;67.20
55711;DHT22;41612;51.994;5.880;2023-11-19T13:16:04;15.40;67.50
55711;DHT22;41612;51.994;5.880;2023-11-19T13:18:35;15.40;68.80
55711;DHT22;41612;51.994;5.880;2023-11-19T13:21:00;15.30;68.30
55711;DHT22;41612;51.994;5.880;2023-11-19T13:23:31;15.20;68.60
55711;DHT22;41612;51.994;5.880;2023-11-19T13:25:59;14.90;69.70
55711;DHT22;41612;51.994;5.880;2023-11-19T13:28:27;14.70;70.10
55711;DHT22;41612;51.994;5.880;2023-11-19T13:30:54;14.60;70.80
55711;DHT22;41612;51.994;5.880;2023-11-19T13:33:32;14.50;71.50
55711;DHT22;41612;51.994;5.880;2023-11-19T13:36:02;14.50;72.00
55711;DHT22;41612;51.994;5.880;2023-11-19T13:38:35;14.50;72.00
55711;DHT22;41612;51.994;5.880;2023-11-19T13:41:07;14.40;71.90
55711;DHT22;41612;51.994;5.880;2023-11-19T13:43:40;14.30;72.00
55711;DHT22;41612;51.994;5.880;2023-11-19T13:46:07;14.30;71.50
55711;DHT22;41612;51.994;5.880;2023-11-19T13:48:35;14.30;72.50
55711;DHT22;41612;51.994;5.880;2023-11-19T13:51:03;14.30;72.20
55711;DHT22;41612;51.994;5.880;2023-11-19T13:53:29;14.30;72.60
55711;DHT22;41612;51.994;5.880;2023-11-19T13:55:55;14.20;72.60
55711;DHT22;41612;51.994;5.880;2023-11-19T13:58:23;14.20;73.00
55711;DHT22;41612;51.994;5.880;2023-11-19T14:00:49;14.10;73.30
55711;DHT22;41612;51.994;5.880;2023-11-19T14:03:16;14.00;74.10
55711;DHT22;41612;51.994;5.880;2023-11-19T14:05:41;14.00;75.20
55711;DHT22;41612;51.994;5.880;2023-11-19T14:08:07;13.90;75.80
55711;DHT22;41612;51.994;5.880;2023-11-19T14:10:40;13.90;76.30
55711;DHT22;41612;51.994;5.880;2023-11-19T14:13:08;13.90;76.30
55711;DHT22;41612;51.994;5.880;2023-11-19T14:15:34;13.90;76.30
55711;DHT22;41612;51.994;5.880;2023-11-19T14:18:04;13.90;76.40
55711;DHT22;41612;51.994;5.880;2023-11-19T14:20:30;14.10;76.40
55711;DHT22;41612;51.994;5.880;2023-11-19T14:22:56;14.80;75.10
55711;DHT22;41612;51.994;5.880;2023-11-19T14:25:24;15.70;72.20
55711;DHT22;41612;51.994;5.880;2023-11-19T14:27:51;16.60;68.80
55711;DHT22;41612;51.994;5.880;2023-11-19T14:30:16;16.70;66.60
55711;DHT22;41612;51.994;5.880;2023-11-19T14:32:42;16.10;67.90
55711;DHT22;41612;51.994;5.880;2023-11-19T14:35:10;15.60;69.40
55711;DHT22;41612;51.994;5.880;2023-11-19T14:37:36;15.00;71.00
55711;DHT22;41612;51.994;5.880;2023-11-19T14:40:02;14.60;72.50
55711;DHT22;41612;51.994;5.880;2023-11-19T14:42:31;14.20;73.90
55711;DHT22;41612;51.994;5.880;2023-11-19T14:44:57;14.10;74.50
55711;DHT22;41612;51.994;5.880;2023-11-19T14:47:25;13.90;75.10
55711;DHT22;41612;51.994;5.880;2023-11-19T14:49:50;13.80;75.30
55711;DHT22;41612;51.994;5.880;2023-11-19T14:52:19;13.60;75.80
55711;DHT22;41612;51.994;5.880;2023-11-19T14:54:45;13.50;76.70
55711;DHT22;41612;51.994;5.880;2023-11-19T14:57:11;13.30;77.00
55711;DHT22;41612;51.994;5.880;2023-11-19T14:59:38;13.30;77.50
55711;DHT22;41612;51.994;5.880;2023-11-19T15:02:04;13.30;78.00
55711;DHT22;41612;51.994;5.880;2023-11-19T15:04:33;13.20;78.10
55711;DHT22;41612;51.994;5.880;2023-11-19T15:07:01;13.20;78.40
55711;DHT22;41612;51.994;5.880;2023-11-19T15:09:34;13.20;78.50
55711;DHT22;41612;51.994;5.880;2023-11-19T15:12:02;13.10;78.60
55711;DHT22;41612;51.994;5.880;2023-11-19T15:14:30;13.10;78.80
55711;DHT22;41612;51.994;5.880;2023-11-19T15:16:56;13.00;78.90
55711;DHT22;41612;51.994;5.880;2023-11-19T15:19:22;13.00;78.90
55711;DHT22;41612;51.994;5.880;2023-11-19T15:21:52;13.00;79.30
55711;DHT22;41612;51.994;5.880;2023-11-19T15:24:17;13.00;79.00
55711;DHT22;41612;51.994;5.880;2023-11-19T15:26:43;12.90;79.10
55711;DHT22;41612;51.994;5.880;2023-11-19T15:29:08;12.90;78.80
55711;DHT22;41612;51.994;5.880;2023-11-19T15:31:36;12.90;78.80
55711;DHT22;41612;51.994;5.880;2023-11-19T15:34:01;12.90;78.90
55711;DHT22;41612;51.994;5.880;2023-11-19T15:36:31;13.00;78.60
55711;DHT22;41612;51.994;5.880;2023-11-19T15:39:07;12.90;78.40
55711;DHT22;41612;51.994;5.880;2023-11-19T15:41:38;12.90;78.70
55711;DHT22;41612;51.994;5.880;2023-11-19T15:44:05;13.00;78.40
55711;DHT22;41612;51.994;5.880;2023-11-19T15:46:31;13.00;78.50
55711;DHT22;41612;51.994;5.880;2023-11-19T15:48:57;13.00;78.60
55711;DHT22;41612;51.994;5.880;2023-11-19T15:51:23;13.00;78.30
55711;DHT22;41612;51.994;5.880;2023-11-19T15:53:49;13.00;78.30
55711;DHT22;41612;51.994;5.880;2023-11-19T15:56:14;13.00;78.50
55711;DHT22;41612;51.994;5.880;2023-11-19T15:58:40;13.00;78.50
55711;DHT22;41612;51.994;5.880;2023-11-19T16:01:06;13.00;78.50
55711;DHT22;41612;51.994;5.880;2023-11-19T16:03:33;13.10;78.70
55711;DHT22;41612;51.994;5.880;2023-11-19T16:05:59;13.10;78.60
55711;DHT22;41612;51.994;5.880;2023-11-19T16:08:25;13.00;78.70
55711;DHT22;41612;51.994;5.880;2023-11-19T16:10:50;13.00;78.80
55711;DHT22;41612;51.994;5.880;2023-11-19T16:13:16;13.00;79.00
55711;DHT22;41612;51.994;5.880;2023-11-19T16:15:42;12.90;79.20
55711;DHT22;41612;51.994;5.880;2023-11-19T16:18:08;12.90;79.50
55711;DHT22;41612;51.994;5.880;2023-11-19T16:20:35;12.80;79.90
55711;DHT22;41612;51.994;5.880;2023-11-19T16:23:01;12.80;80.40
55711;DHT22;41612;51.994;5.880;2023-11-19T16:25:33;12.80;80.40
55711;DHT22;41612;51.994;5.880;2023-11-19T16:28:00;12.80;80.60
55711;DHT22;41612;51.994;5.880;2023-11-19T16:30:29;12.80;80.70
55711;DHT22;41612;51.994;5.880;2023-11-19T16:32:59;12.80;80.80
55711;DHT22;41612;51.994;5.880;2023-11-19T16:35:25;12.80;80.90
55711;DHT22;41612;51.994;5.880;2023-11-19T16:37:53;12.80;81.10
55711;DHT22;41612;51.994;5.880;2023-11-19T16:40:19;12.70;81.40
55711;DHT22;41612;51.994;5.880;2023-11-19T16:42:45;12.70;81.50
55711;DHT22;41612;51.994;5.880;2023-11-19T16:45:13;12.60;81.90
55711;DHT22;41612;51.994;5.880;2023-11-19T16:47:42;12.60;82.00
55711;DHT22;41612;51.994;5.880;2023-11-19T16:50:10;12.50;82.20
55711;DHT22;41612;51.994;5.880;2023-11-19T16:52:37;12.50;82.10
55711;DHT22;41612;51.994;5.880;2023-11-19T16:55:06;12.50;81.90
55711;DHT22;41612;51.994;5.880;2023-11-19T16:57:40;12.60;82.30
55711;DHT22;41612;51.994;5.880;2023-11-19T17:00:09;12.50;82.30
55711;DHT22;41612;51.994;5.880;2023-11-19T17:27:23;11.90;86.30
55711;DHT22;41612;51.994;5.880;2023-11-19T17:30:47;11.80;86.40
55711;DHT22;41612;51.994;5.880;2023-11-19T17:34:12;11.80;86.60
55711;DHT22;41612;51.994;5.880;2023-11-19T17:37:27;11.70;87.00
55711;DHT22;41612;51.994;5.880;2023-11-19T17:50:32;11.70;87.30
55711;DHT22;41612;51.994;5.880;2023-11-19T17:53:09;11.70;87.90
55711;DHT22;41612;51.994;5.880;2023-11-19T18:44:28;11.50;89.70
55711;DHT22;41612;51.994;5.880;2023-11-19T18:46:58;11.50;89.80
55711;DHT22;41612;51.994;5.880;2023-11-19T18:49:29;11.50;89.90
55711;DHT22;41612;51.994;5.880;2023-11-19T18:51:58;11.50;89.60
55711;DHT22;41612;51.994;5.880;2023-11-19T18:54:31;11.50;89.60
55711;DHT22;41612;51.994;5.880;2023-11-19T18:59:41;11.50;88.60
55711;DHT22;41612;51.994;5.880;2023-11-19T19:02:12;11.60;88.90
55711;DHT22;41612;51.994;5.880;2023-11-19T19:22:28;11.50;89.20
55711;DHT22;41612;51.994;5.880;2023-11-19T19:25:14;11.50;89.30
55711;DHT22;41612;51.994;5.880;2023-11-19T19:57:29;11.50;90.30
55711;DHT22;41612;51.994;5.880;2023-11-19T21:10:49;11.80;89.70
55711;DHT22;41612;51.994;5.880;2023-11-19T21:13:17;11.70;90.10
55711;DHT22;41612;51.994;5.880;2023-11-19T21:15:47;11.70;90.40
55711;DHT22;41612;51.994;5.880;2023-11-19T21:18:18;11.70;89.80
55711;DHT22;41612;51.994;5.880;2023-11-19T21:20:47;11.80;90.10
55711;DHT22;41612;51.994;5.880;2023-11-19T21:23:13;11.70;90.20
55711;DHT22;41612;51.994;5.880;2023-11-19T21:25:40;11.70;90.30
55711;DHT22;41612;51.994;5.880;2023-11-19T21:28:11;11.70;90.60
55711;DHT22;41612;51.994;5.880;2023-11-19T21:30:38;11.70;89.90
55711;DHT22;41612;51.994;5.880;2023-11-19T21:33:05;11.70;90.10
55711;DHT22;41612;51.994;5.880;2023-11-19T21:35:30;11.70;90.40
55711;DHT22;41612;51.994;5.880;2023-11-19T21:37:57;11.70;90.40
55711;DHT22;41612;51.994;5.880;2023-11-19T21:40:23;11.70;90.50
55711;DHT22;41612;51.994;5.880;2023-11-19T21:42:48;11.80;90.00
55711;DHT22;41612;51.994;5.880;2023-11-19T21:45:17;11.80;90.20
55711;DHT22;41612;51.994;5.880;2023-11-19T21:47:43;11.80;90.30
55711;DHT22;41612;51.994;5.880;2023-11-19T21:50:19;11.80;90.30
55711;DHT22;41612;51.994;5.880;2023-11-19T21:52:48;11.70;90.40
55711;DHT22;41612;51.994;5.880;2023-11-19T21:55:15;11.80;90.50
55711;DHT22;41612;51.994;5.880;2023-11-19T21:57:43;11.80;90.20
55711;DHT22;41612;51.994;5.880;2023-11-19T22:00:09;11.80;90.60
55711;DHT22;41612;51.994;5.880;2023-11-19T22:02:35;11.70;90.70
55711;DHT22;41612;51.994;5.880;2023-11-19T22:05:02;11.80;90.90
55711;DHT22;41612;51.994;5.880;2023-11-19T22:07:27;11.80;90.60